Time;durP1;ratioP1;P1;durP2;ratioP2;P2;SDS_P1;SDS_P2;PMS_P1;PMS_P2;Temp;Humidity;BMP_temperature;BMP_pressure;BME280_temperature;BME280_humidity;BME280_pressure;Samples;Min_cycle;Max_cycle;Signal;HPM_P1;HPM_P2
2023/05/17 00:02:17;;;;;;;2.95;1.40;;;;;;;;;;6301579;22;20010;-78
2023/05/17 00:04:44;;;;;;;7.72;1.50;;;;;;;;;;6301720;22;20010;-77
2023/05/17 00:07:09;;;;;;;4.05;1.52;;;;;;;;;;6301314;22;20498;-78
2023/05/17 00:09:34;;;;;;;6.05;1.58;;;;;;;;;;6301779;22;20066;-77
2023/05/17 00:12:00;;;;;;;5.18;1.60;;;;;;;;;;6302036;22;20013;-78
2023/05/17 00:14:25;;;;;;;4.85;1.48;;;;;;;;;;6301783;22;20532;-78
2023/05/17 00:16:51;;;;;;;3.75;1.40;;;;;;;;;;6302113;22;20779;-77
2023/05/17 00:19:17;;;;;;;4.63;1.70;;;;;;;;;;6301482;22;20008;-78
2023/05/17 00:21:42;;;;;;;6.05;1.70;;;;;;;;;;6274110;22;20100;-78
2023/05/17 00:24:08;;;;;;;7.10;1.48;;;;;;;;;;6301593;22;19999;-78
2023/05/17 00:26:34;;;;;;;4.68;1.67;;;;;;;;;;6301795;22;19999;-77
2023/05/17 00:28:59;;;;;;;5.50;1.70;;;;;;;;;;6301689;22;20108;-78
2023/05/17 00:31:24;;;;;;;5.57;1.35;;;;;;;;;;6301856;22;20078;-78
2023/05/17 00:33:50;;;;;;;3.17;1.13;;;;;;;;;;6301530;22;20321;-78
2023/05/17 00:36:15;;;;;;;5.15;1.40;;;;;;;;;;6301566;22;20003;-78
2023/05/17 00:38:41;;;;;;;6.47;1.60;;;;;;;;;;6301721;22;20009;-77
2023/05/17 00:41:06;;;;;;;6.68;1.50;;;;;;;;;;6274413;22;20007;-78
2023/05/17 00:43:32;;;;;;;4.90;1.50;;;;;;;;;;6301352;22;20506;-77
2023/05/17 00:45:57;;;;;;;6.70;1.65;;;;;;;;;;6301628;22;20000;-78
2023/05/17 00:48:25;;;;;;;4.47;1.50;;;;;;;;;;6301480;22;20203;-78
2023/05/17 00:50:52;;;;;;;4.07;1.20;;;;;;;;;;6301680;22;20004;-77
2023/05/17 00:53:18;;;;;;;3.75;1.27;;;;;;;;;;6301089;22;20072;-77
2023/05/17 00:55:43;;;;;;;5.13;1.42;;;;;;;;;;6301998;22;20003;-78
2023/05/17 00:58:11;;;;;;;3.00;1.20;;;;;;;;;;6301461;22;20479;-78
2023/05/17 01:00:36;;;;;;;3.70;1.40;;;;;;;;;;6301778;22;20517;-78
2023/05/17 01:03:02;;;;;;;3.92;1.48;;;;;;;;;;6301282;22;20030;-78
2023/05/17 01:05:28;;;;;;;3.70;1.15;;;;;;;;;;6301318;22;20377;-78
2023/05/17 01:07:53;;;;;;;4.13;1.20;;;;;;;;;;6302761;22;20003;-78
2023/05/17 01:10:20;;;;;;;3.88;1.13;;;;;;;;;;6303671;22;20002;-78
2023/05/17 01:13:07;;;;;;;7.72;1.40;;;;;;;;;;6303493;22;20456;-77
2023/05/17 01:15:37;;;;;;;4.72;1.33;;;;;;;;;;6303742;22;19999;-77
2023/05/17 01:18:19;;;;;;;7.30;1.43;;;;;;;;;;6303961;22;20065;-78
2023/05/17 01:20:47;;;;;;;8.20;1.40;;;;;;;;;;6301812;22;20253;-77
2023/05/17 01:23:44;;;;;;;4.60;1.40;;;;;;;;;;6302807;22;20011;-78
2023/05/17 01:26:15;;;;;;;3.42;1.05;;;;;;;;;;6303583;22;20003;-78
2023/05/17 01:28:43;;;;;;;3.38;1.30;;;;;;;;;;6303314;22;20004;-78
2023/05/17 01:31:10;;;;;;;4.68;1.30;;;;;;;;;;6303497;22;20061;-78
2023/05/17 01:33:37;;;;;;;6.80;1.50;;;;;;;;;;6303361;22;20034;-78
2023/05/17 01:36:02;;;;;;;4.32;1.35;;;;;;;;;;6275338;22;20030;-78
2023/05/17 01:38:28;;;;;;;6.60;1.60;;;;;;;;;;6303429;22;20007;-78
2023/05/17 01:41:21;;;;;;;3.53;1.20;;;;;;;;;;6303456;22;20022;-78
2023/05/17 01:43:57;;;;;;;5.63;1.40;;;;;;;;;;6302966;22;20000;-78
2023/05/17 01:46:29;;;;;;;4.82;1.20;;;;;;;;;;6275916;22;20007;-78
2023/05/17 01:49:23;;;;;;;4.07;1.10;;;;;;;;;;6303164;22;20014;-78
2023/05/17 01:52:07;;;;;;;4.35;1.23;;;;;;;;;;6302744;22;20030;-78
2023/05/17 01:55:06;;;;;;;6.72;1.52;;;;;;;;;;6302813;22;20070;-77
2023/05/17 01:57:35;;;;;;;3.45;1.17;;;;;;;;;;6303673;22;20086;-78
2023/05/17 02:00:11;;;;;;;5.47;1.30;;;;;;;;;;6303142;22;20018;-78
2023/05/17 02:02:36;;;;;;;4.95;1.15;;;;;;;;;;6275808;22;20090;-78
2023/05/17 02:05:02;;;;;;;4.50;1.50;;;;;;;;;;6302495;22;20474;-78
2023/05/17 02:07:27;;;;;;;2.75;1.20;;;;;;;;;;6302740;22;20006;-78
2023/05/17 02:09:53;;;;;;;3.08;1.10;;;;;;;;;;6302990;22;20077;-78
2023/05/17 02:12:18;;;;;;;3.90;1.00;;;;;;;;;;6303291;22;20336;-78
2023/05/17 02:14:43;;;;;;;5.07;1.10;;;;;;;;;;6302736;22;20003;-76
2023/05/17 02:17:09;;;;;;;5.43;1.20;;;;;;;;;;6275463;22;20007;-78
2023/05/17 02:19:34;;;;;;;4.90;1.23;;;;;;;;;;6302731;22;20367;-78
2023/05/17 02:21:59;;;;;;;4.88;1.27;;;;;;;;;;6302581;22;20030;-78
2023/05/17 02:24:25;;;;;;;3.47;1.05;;;;;;;;;;6302527;22;20023;-77
2023/05/17 02:26:51;;;;;;;4.50;1.52;;;;;;;;;;6303015;22;20003;-77
2023/05/17 02:29:16;;;;;;;6.00;1.20;;;;;;;;;;6302934;22;20000;-78
2023/05/17 02:31:41;;;;;;;2.47;0.95;;;;;;;;;;6302856;22;20003;-77
2023/05/17 02:34:07;;;;;;;4.28;1.25;;;;;;;;;;6302580;22;20003;-77
2023/05/17 02:36:32;;;;;;;3.20;1.00;;;;;;;;;;6302540;22;20007;-78
2023/05/17 02:38:58;;;;;;;5.78;1.15;;;;;;;;;;6275612;22;19999;-77
2023/05/17 02:41:23;;;;;;;3.10;0.82;;;;;;;;;;6302410;22;20007;-77
2023/05/17 02:43:49;;;;;;;3.70;1.10;;;;;;;;;;6302721;22;20006;-77
2023/05/17 02:46:15;;;;;;;6.60;1.40;;;;;;;;;;6302553;22;20007;-77
2023/05/17 02:48:40;;;;;;;6.25;1.15;;;;;;;;;;6302815;22;20014;-77
2023/05/17 02:51:06;;;;;;;2.75;1.00;;;;;;;;;;6302231;22;20010;-77
2023/05/17 02:53:31;;;;;;;4.03;1.15;;;;;;;;;;6275335;22;20007;-77
2023/05/17 02:55:57;;;;;;;4.05;1.00;;;;;;;;;;6302576;22;20079;-76
2023/05/17 02:58:26;;;;;;;4.60;1.35;;;;;;;;;;6302896;22;19999;-77
2023/05/17 03:00:52;;;;;;;2.15;1.00;;;;;;;;;;6302356;22;19999;-77
2023/05/17 03:03:17;;;;;;;5.50;1.05;;;;;;;;;;6302539;22;20052;-76
2023/05/17 03:05:43;;;;;;;3.22;1.15;;;;;;;;;;6301985;22;20392;-76
2023/05/17 03:08:08;;;;;;;3.53;1.08;;;;;;;;;;6302304;22;20003;-76
2023/05/17 03:10:34;;;;;;;3.80;1.10;;;;;;;;;;6275070;22;20524;-75
2023/05/17 03:12:59;;;;;;;5.78;1.20;;;;;;;;;;6302584;22;20010;-77
2023/05/17 03:15:28;;;;;;;4.18;1.13;;;;;;;;;;6301998;22;20000;-77
2023/05/17 03:17:54;;;;;;;2.22;0.90;;;;;;;;;;6302477;22;19995;-77
2023/05/17 03:20:19;;;;;;;3.72;1.10;;;;;;;;;;6302114;22;20416;-77
2023/05/17 03:22:44;;;;;;;2.05;0.95;;;;;;;;;;6301895;22;20037;-77
2023/05/17 03:25:10;;;;;;;4.88;1.05;;;;;;;;;;6301886;22;20014;-77
2023/05/17 03:27:35;;;;;;;3.63;1.10;;;;;;;;;;6275016;22;20003;-77
2023/05/17 03:30:01;;;;;;;3.95;1.10;;;;;;;;;;6301697;22;20003;-77
2023/05/17 03:32:27;;;;;;;5.57;1.15;;;;;;;;;;6302204;22;20009;-78
2023/05/17 03:34:52;;;;;;;4.15;1.20;;;;;;;;;;6274765;22;20011;-78
2023/05/17 03:37:18;;;;;;;7.35;1.20;;;;;;;;;;6301743;22;20328;-76
2023/05/17 03:39:43;;;;;;;4.50;1.10;;;;;;;;;;6302168;22;19999;-76
2023/05/17 03:42:08;;;;;;;5.82;1.10;;;;;;;;;;6301990;22;20002;-77
2023/05/17 03:44:34;;;;;;;3.05;1.00;;;;;;;;;;6302198;22;20546;-78
2023/05/17 03:47:00;;;;;;;3.42;1.20;;;;;;;;;;6302081;22;20491;-77
2023/05/17 03:49:25;;;;;;;6.00;1.23;;;;;;;;;;6302303;22;20009;-78
2023/05/17 03:51:50;;;;;;;2.78;0.98;;;;;;;;;;6273864;22;20011;-77
2023/05/17 03:54:16;;;;;;;5.28;1.10;;;;;;;;;;6302227;22;20045;-77
2023/05/17 03:56:45;;;;;;;4.13;1.10;;;;;;;;;;6302125;22;19999;-77
2023/05/17 03:59:14;;;;;;;6.35;1.50;;;;;;;;;;6302105;22;20006;-78
2023/05/17 04:01:41;;;;;;;5.72;1.10;;;;;;;;;;6301683;22;20086;-77
2023/05/17 04:04:07;;;;;;;3.08;1.13;;;;;;;;;;6301839;22;19999;-77
2023/05/17 04:06:32;;;;;;;4.53;1.25;;;;;;;;;;6301348;22;20355;-77
2023/05/17 04:08:58;;;;;;;3.65;1.20;;;;;;;;;;6302098;22;20442;-77
2023/05/17 04:11:26;;;;;;;4.63;1.13;;;;;;;;;;6302083;22;20010;-77
2023/05/17 04:13:52;;;;;;;2.90;1.10;;;;;;;;;;6302118;22;20367;-79
2023/05/17 04:16:17;;;;;;;4.43;1.45;;;;;;;;;;6274010;22;20003;-78
2023/05/17 04:18:44;;;;;;;4.65;1.10;;;;;;;;;;6301786;22;20029;-78
2023/05/17 04:21:09;;;;;;;4.60;1.05;;;;;;;;;;6301245;22;19999;-78
2023/05/17 04:23:35;;;;;;;6.57;1.33;;;;;;;;;;6274326;22;20007;-78
2023/05/17 04:26:03;;;;;;;6.80;1.30;;;;;;;;;;6301421;22;20463;-77
2023/05/17 04:28:28;;;;;;;6.28;1.10;;;;;;;;;;6301993;22;20030;-78
2023/05/17 04:30:55;;;;;;;7.70;1.30;;;;;;;;;;6301495;22;20003;-78
2023/05/17 04:33:20;;;;;;;5.43;1.23;;;;;;;;;;6301905;22;20132;-78
2023/05/17 04:35:46;;;;;;;3.05;1.10;;;;;;;;;;6301456;22;20003;-77
2023/05/17 04:38:12;;;;;;;4.88;1.35;;;;;;;;;;6301357;22;20049;-77
2023/05/17 04:40:37;;;;;;;2.35;1.20;;;;;;;;;;6301649;22;20003;-77
2023/05/17 04:43:03;;;;;;;5.65;1.30;;;;;;;;;;6301376;22;20007;-77
2023/05/17 04:45:28;;;;;;;6.15;1.30;;;;;;;;;;6301425;22;20007;-77
2023/05/17 04:47:54;;;;;;;5.68;1.20;;;;;;;;;;6301413;22;20078;-77
2023/05/17 04:50:20;;;;;;;4.22;1.30;;;;;;;;;;6301876;22;19999;-77
2023/05/17 04:52:46;;;;;;;5.50;1.20;;;;;;;;;;6300949;22;20003;-78
2023/05/17 04:55:11;;;;;;;6.82;1.20;;;;;;;;;;6301615;22;20041;-78
2023/05/17 04:57:37;;;;;;;4.75;1.20;;;;;;;;;;6301671;22;20014;-78
2023/05/17 05:00:07;;;;;;;3.50;1.13;;;;;;;;;;6301430;22;19999;-77
2023/05/17 05:02:33;;;;;;;2.95;1.15;;;;;;;;;;6301451;22;20064;-77
2023/05/17 05:04:58;;;;;;;5.53;1.30;;;;;;;;;;6301543;22;19999;-77
2023/05/17 05:07:24;;;;;;;5.38;1.77;;;;;;;;;;6300883;22;20003;-78
2023/05/17 05:09:49;;;;;;;5.40;1.20;;;;;;;;;;6301860;22;20010;-77
2023/05/17 05:12:15;;;;;;;6.28;1.30;;;;;;;;;;6301199;22;20003;-77
2023/05/17 05:14:40;;;;;;;3.53;1.25;;;;;;;;;;6301619;22;20015;-76
2023/05/17 05:17:06;;;;;;;5.43;1.60;;;;;;;;;;6301341;22;20396;-76
2023/05/17 05:19:31;;;;;;;4.15;1.40;;;;;;;;;;6301341;22;20101;-77
2023/05/17 05:21:57;;;;;;;6.13;1.40;;;;;;;;;;6300799;22;20078;-76
2023/05/17 05:24:22;;;;;;;5.43;1.50;;;;;;;;;;6301455;22;19999;-76
2023/05/17 05:26:47;;;;;;;4.38;1.40;;;;;;;;;;6301054;22;20026;-76
2023/05/17 05:29:13;;;;;;;4.97;1.55;;;;;;;;;;6301540;22;20000;-76
2023/05/17 05:31:38;;;;;;;6.88;1.42;;;;;;;;;;6301018;22;20026;-76
2023/05/17 05:34:04;;;;;;;5.68;1.58;;;;;;;;;;6274142;22;20003;-76
2023/05/17 05:36:30;;;;;;;5.32;1.50;;;;;;;;;;6273516;22;20056;-77
2023/05/17 05:38:55;;;;;;;5.93;1.38;;;;;;;;;;6273942;22;20035;-76
2023/05/17 05:41:21;;;;;;;6.03;1.50;;;;;;;;;;6301283;22;20007;-77
2023/05/17 05:43:46;;;;;;;5.43;1.38;;;;;;;;;;6301153;22;20443;-76
2023/05/17 05:46:11;;;;;;;6.90;1.50;;;;;;;;;;6301255;22;20006;-76
2023/05/17 05:48:40;;;;;;;3.92;1.60;;;;;;;;;;6301429;22;19999;-76
2023/05/17 05:51:06;;;;;;;6.20;1.58;;;;;;;;;;6301015;22;19995;-77
2023/05/17 05:53:32;;;;;;;4.45;1.50;;;;;;;;;;6302422;22;20003;-76
2023/05/17 05:55:57;;;;;;;2.63;1.10;;;;;;;;;;6303416;22;20034;-77
2023/05/17 05:58:23;;;;;;;5.47;1.63;;;;;;;;;;6302963;22;19999;-76
2023/05/17 06:00:48;;;;;;;5.30;1.45;;;;;;;;;;6303323;22;20023;-77
2023/05/17 06:03:14;;;;;;;4.50;1.45;;;;;;;;;;6302879;22;20394;-77
2023/05/17 06:05:39;;;;;;;3.13;1.40;;;;;;;;;;6303460;22;20004;-77
2023/05/17 06:08:05;;;;;;;5.80;1.63;;;;;;;;;;6302768;22;20006;-77
2023/05/17 06:10:31;;;;;;;5.65;1.42;;;;;;;;;;6303431;22;20003;-77
2023/05/17 06:12:56;;;;;;;4.82;1.75;;;;;;;;;;6302799;22;20145;-77
2023/05/17 06:15:22;;;;;;;3.58;1.75;;;;;;;;;;6303152;22;20003;-77
2023/05/17 06:17:47;;;;;;;4.25;1.63;;;;;;;;;;6303063;22;20031;-77
2023/05/17 06:20:13;;;;;;;5.60;1.52;;;;;;;;;;6302944;22;20016;-77
2023/05/17 06:22:39;;;;;;;6.00;1.55;;;;;;;;;;6274697;22;20341;-77
2023/05/17 06:25:05;;;;;;;6.03;1.50;;;;;;;;;;6302728;22;20007;-76
2023/05/17 06:27:32;;;;;;;8.18;1.67;;;;;;;;;;6275332;22;20003;-77
2023/05/17 06:29:57;;;;;;;4.72;1.60;;;;;;;;;;6303221;22;19999;-77
2023/05/17 06:32:22;;;;;;;5.45;1.70;;;;;;;;;;6302714;22;20003;-76
2023/05/17 06:34:48;;;;;;;8.73;1.70;;;;;;;;;;6303241;22;20000;-78
2023/05/17 06:37:13;;;;;;;3.58;1.58;;;;;;;;;;6301961;22;20003;-78
2023/05/17 06:39:39;;;;;;;6.10;1.63;;;;;;;;;;6303104;22;20022;-77
2023/05/17 06:42:04;;;;;;;6.65;1.58;;;;;;;;;;6302368;22;20446;-77
2023/05/17 06:44:30;;;;;;;7.10;1.75;;;;;;;;;;6302867;22;20455;-77
2023/05/17 06:46:55;;;;;;;3.75;1.33;;;;;;;;;;6302558;22;20439;-78
2023/05/17 06:49:21;;;;;;;5.28;1.30;;;;;;;;;;6302756;22;20014;-77
2023/05/17 06:51:47;;;;;;;4.10;1.40;;;;;;;;;;6302632;22;20007;-77
2023/05/17 06:54:13;;;;;;;4.95;1.52;;;;;;;;;;6302664;22;20541;-78
2023/05/17 06:56:38;;;;;;;4.72;1.52;;;;;;;;;;6302607;22;20006;-78
2023/05/17 06:59:04;;;;;;;4.20;1.40;;;;;;;;;;6302418;22;20064;-78
2023/05/17 07:01:30;;;;;;;6.97;1.60;;;;;;;;;;6302666;22;20086;-77
2023/05/17 07:03:56;;;;;;;4.95;1.50;;;;;;;;;;6302540;22;20011;-78
2023/05/17 07:06:21;;;;;;;5.38;1.50;;;;;;;;;;6302184;22;20015;-77
2023/05/17 07:08:47;;;;;;;5.80;1.55;;;;;;;;;;6302517;22;19999;-78
2023/05/17 07:11:12;;;;;;;7.53;1.63;;;;;;;;;;6302650;22;20003;-78
2023/05/17 07:13:37;;;;;;;5.40;1.50;;;;;;;;;;6302571;22;20422;-78
2023/05/17 07:16:05;;;;;;;6.20;1.50;;;;;;;;;;6274795;22;20025;-78
2023/05/17 07:18:30;;;;;;;5.65;1.63;;;;;;;;;;6302248;22;20033;-78
2023/05/17 07:20:56;;;;;;;4.90;1.50;;;;;;;;;;6301921;22;20325;-77
2023/05/17 07:23:21;;;;;;;6.55;1.60;;;;;;;;;;6302186;22;20011;-77
2023/05/17 07:25:47;;;;;;;4.38;1.50;;;;;;;;;;6302282;22;20078;-77
2023/05/17 07:28:12;;;;;;;4.57;1.60;;;;;;;;;;6302397;22;20033;-78
2023/05/17 07:30:38;;;;;;;5.10;1.55;;;;;;;;;;6302789;22;20060;-78
2023/05/17 07:33:03;;;;;;;5.45;1.63;;;;;;;;;;6301807;22;20553;-78
2023/05/17 07:35:28;;;;;;;3.70;1.30;;;;;;;;;;6302421;22;20078;-77
2023/05/17 07:37:54;;;;;;;9.23;1.77;;;;;;;;;;6301344;22;20003;-77
2023/05/17 07:40:20;;;;;;;7.22;1.45;;;;;;;;;;6274819;22;19999;-77
2023/05/17 07:42:46;;;;;;;5.60;1.63;;;;;;;;;;6302238;22;20007;-77
2023/05/17 07:45:11;;;;;;;9.13;1.42;;;;;;;;;;6302423;22;20057;-77
2023/05/17 07:47:37;;;;;;;6.97;1.77;;;;;;;;;;6302103;22;20022;-78
2023/05/17 07:50:03;;;;;;;7.30;1.75;;;;;;;;;;6302075;22;20342;-77
2023/05/17 07:52:28;;;;;;;18.77;1.92;;;;;;;;;;6301683;22;20166;-77
2023/05/17 07:54:54;;;;;;;6.47;1.70;;;;;;;;;;6301800;22;20643;-77
2023/05/17 07:57:19;;;;;;;5.95;1.70;;;;;;;;;;6301838;22;20034;-78
2023/05/17 07:59:45;;;;;;;5.10;1.20;;;;;;;;;;6301524;22;20009;-77
2023/05/17 08:02:10;;;;;;;5.63;1.60;;;;;;;;;;6302029;22;20003;-78
2023/05/17 08:04:36;;;;;;;4.80;1.55;;;;;;;;;;6301826;22;20446;-78
2023/05/17 08:07:02;;;;;;;5.70;1.48;;;;;;;;;;6301196;22;20003;-77
2023/05/17 08:09:27;;;;;;;3.75;1.50;;;;;;;;;;6300560;22;20004;-77
2023/05/17 08:11:52;;;;;;;4.43;1.50;;;;;;;;;;6301594;22;20004;-77
2023/05/17 08:14:21;;;;;;;5.07;1.95;;;;;;;;;;6301490;22;20489;-78
2023/05/17 08:16:47;;;;;;;7.03;1.65;;;;;;;;;;6301586;22;20026;-78
2023/05/17 08:19:14;;;;;;;4.53;1.58;;;;;;;;;;6301479;22;20015;-77
2023/05/17 08:21:41;;;;;;;5.75;1.80;;;;;;;;;;6301497;22;20325;-77
2023/05/17 08:24:06;;;;;;;5.70;1.52;;;;;;;;;;6301612;22;19999;-77
2023/05/17 08:26:32;;;;;;;3.60;1.50;;;;;;;;;;6302078;22;19999;-77
2023/05/17 08:28:58;;;;;;;4.15;1.58;;;;;;;;;;6301831;22;20005;-77
2023/05/17 08:31:23;;;;;;;6.03;1.52;;;;;;;;;;6301559;22;20010;-77
2023/05/17 08:33:48;;;;;;;5.72;1.50;;;;;;;;;;6301590;22;20030;-77
2023/05/17 08:36:14;;;;;;;3.28;1.50;;;;;;;;;;6301207;22;20078;-77
2023/05/17 08:38:40;;;;;;;5.32;1.65;;;;;;;;;;6301485;22;19999;-77
2023/05/17 08:41:05;;;;;;;3.50;1.42;;;;;;;;;;6301955;22;19999;-77
2023/05/17 08:43:31;;;;;;;6.35;1.60;;;;;;;;;;6301825;22;20552;-77
2023/05/17 08:45:57;;;;;;;6.32;1.52;;;;;;;;;;6302077;22;20030;-77
2023/05/17 08:48:25;;;;;;;7.45;1.60;;;;;;;;;;6301467;22;20467;-77
2023/05/17 08:50:53;;;;;;;3.40;1.42;;;;;;;;;;6301169;22;20066;-77
2023/05/17 08:53:18;;;;;;;3.67;1.58;;;;;;;;;;6301433;22;20007;-77
2023/05/17 08:55:49;;;;;;;6.72;1.52;;;;;;;;;;6301270;22;20324;-77
2023/05/17 08:58:20;;;;;;;7.80;1.75;;;;;;;;;;6301604;22;20324;-78
2023/05/17 09:00:48;;;;;;;6.18;1.70;;;;;;;;;;6301574;22;20635;-78
2023/05/17 09:03:16;;;;;;;4.95;1.40;;;;;;;;;;6301767;22;20073;-78
2023/05/17 09:05:43;;;;;;;4.15;1.27;;;;;;;;;;6301456;22;20007;-77
2023/05/17 09:08:12;;;;;;;4.53;1.50;;;;;;;;;;6300924;22;20010;-77
2023/05/17 09:10:39;;;;;;;5.88;1.58;;;;;;;;;;6301520;22;20003;-77
2023/05/17 09:13:05;;;;;;;6.40;1.45;;;;;;;;;;6301460;22;20007;-78
2023/05/17 09:15:32;;;;;;;5.75;1.60;;;;;;;;;;6301476;22;20007;-78
2023/05/17 09:17:58;;;;;;;5.50;1.40;;;;;;;;;;6301543;22;20355;-78
2023/05/17 09:20:35;;;;;;;5.65;1.40;;;;;;;;;;6301143;22;20075;-78
2023/05/17 09:23:09;;;;;;;5.45;1.45;;;;;;;;;;6301258;22;20010;-78
2023/05/17 09:25:35;;;;;;;6.13;1.70;;;;;;;;;;6301497;22;20530;-78
2023/05/17 09:28:02;;;;;;;4.95;1.40;;;;;;;;;;6301864;22;20045;-78
2023/05/17 09:30:32;;;;;;;4.15;1.65;;;;;;;;;;6303202;22;19999;-78
2023/05/17 09:33:03;;;;;;;3.40;1.40;;;;;;;;;;6303329;22;20056;-79
2023/05/17 09:35:33;;;;;;;4.80;1.42;;;;;;;;;;6303434;22;20003;-78
2023/05/17 09:38:08;;;;;;;7.35;1.70;;;;;;;;;;6303048;22;20336;-78
2023/05/17 09:40:41;;;;;;;5.53;1.50;;;;;;;;;;6303495;22;20003;-78
2023/05/17 09:43:07;;;;;;;5.07;1.75;;;;;;;;;;6303664;22;20072;-78
2023/05/17 09:45:33;;;;;;;3.30;1.38;;;;;;;;;;6303195;22;20007;-78
2023/05/17 09:48:16;;;;;;;4.55;1.58;;;;;;;;;;6303054;22;20363;-78
2023/05/17 09:50:45;;;;;;;14.95;1.30;;;;;;;;;;6302833;22;20083;-77
2023/05/17 09:53:38;;;;;;;4.30;1.60;;;;;;;;;;6303045;22;20007;-77
2023/05/17 09:56:05;;;;;;;6.15;1.42;;;;;;;;;;6302954;22;19999;-78
2023/05/17 09:58:32;;;;;;;4.30;1.55;;;;;;;;;;6303356;22;20007;-77
2023/05/17 10:00:59;;;;;;;4.15;1.42;;;;;;;;;;6303252;22;20022;-77
2023/05/17 10:03:29;;;;;;;7.68;1.60;;;;;;;;;;6303419;22;20301;-77
2023/05/17 10:05:54;;;;;;;4.00;1.50;;;;;;;;;;6302557;22;20003;-77
2023/05/17 10:08:22;;;;;;;4.38;1.50;;;;;;;;;;6302858;22;20386;-77
2023/05/17 10:10:51;;;;;;;6.55;1.70;;;;;;;;;;6302977;22;19999;-77
2023/05/17 10:13:23;;;;;;;4.25;1.48;;;;;;;;;;6303306;22;20323;-77
2023/05/17 10:15:50;;;;;;;5.43;1.60;;;;;;;;;;6303284;22;20007;-77
2023/05/17 10:18:17;;;;;;;4.05;1.50;;;;;;;;;;6303278;22;20076;-77
2023/05/17 10:20:42;;;;;;;4.05;1.45;;;;;;;;;;6302640;22;20426;-77
2023/05/17 10:23:10;;;;;;;3.90;1.30;;;;;;;;;;6302707;22;20023;-77
2023/05/17 10:25:37;;;;;;;3.83;1.48;;;;;;;;;;6275197;22;20039;-77
2023/05/17 10:28:05;;;;;;;4.85;1.33;;;;;;;;;;6302808;22;20061;-77
2023/05/17 10:30:32;;;;;;;5.15;1.50;;;;;;;;;;6302807;22;20357;-77
2023/05/17 10:32:58;;;;;;;4.95;1.48;;;;;;;;;;6303073;22;20018;-77
2023/05/17 10:35:26;;;;;;;4.47;1.60;;;;;;;;;;6275506;22;20003;-78
2023/05/17 10:37:51;;;;;;;4.65;1.63;;;;;;;;;;6274970;22;20010;-77
2023/05/17 10:40:19;;;;;;;6.00;1.70;;;;;;;;;;6302407;22;20003;-77
2023/05/17 10:42:52;;;;;;;5.50;1.60;;;;;;;;;;6302922;22;19995;-78
2023/05/17 10:45:23;;;;;;;3.80;1.48;;;;;;;;;;6274909;22;20011;-77
2023/05/17 10:47:52;;;;;;;3.92;1.40;;;;;;;;;;6302663;22;20021;-77
2023/05/17 10:50:25;;;;;;;6.05;1.60;;;;;;;;;;6302751;22;20467;-78
2023/05/17 10:52:55;;;;;;;5.18;1.45;;;;;;;;;;6302591;22;20007;-78
2023/05/17 10:55:22;;;;;;;5.13;1.60;;;;;;;;;;6302685;22;19999;-77
2023/05/17 10:58:18;;;;;;;6.43;1.50;;;;;;;;;;6302758;22;20031;-78
2023/05/17 11:00:47;;;;;;;6.97;1.58;;;;;;;;;;6302392;22;20033;-77
2023/05/17 11:03:27;;;;;;;5.38;1.50;;;;;;;;;;6302648;22;20039;-77
2023/05/17 11:06:13;;;;;;;6.65;1.60;;;;;;;;;;6301894;22;20014;-77
2023/05/17 11:09:04;;;;;;;3.50;1.45;;;;;;;;;;6302392;22;20037;-77
2023/05/17 11:11:29;;;;;;;4.78;1.40;;;;;;;;;;6302452;22;20432;-77
2023/05/17 11:13:55;;;;;;;4.60;1.42;;;;;;;;;;6302876;22;19999;-77
2023/05/17 11:16:26;;;;;;;4.70;1.38;;;;;;;;;;6302490;22;20036;-77
2023/05/17 11:18:53;;;;;;;3.05;1.42;;;;;;;;;;6302188;22;20072;-77
2023/05/17 11:21:21;;;;;;;4.38;1.52;;;;;;;;;;6301569;22;20379;-77
2023/05/17 11:23:48;;;;;;;4.15;1.35;;;;;;;;;;6302487;22;20034;-77
2023/05/17 11:26:27;;;;;;;5.68;1.50;;;;;;;;;;6302267;22;20057;-77
2023/05/17 11:29:01;;;;;;;6.18;1.58;;;;;;;;;;6302446;22;20003;-77
2023/05/17 11:31:31;;;;;;;4.97;1.60;;;;;;;;;;6302252;22;20010;-77
2023/05/17 11:33:57;;;;;;;3.05;1.48;;;;;;;;;;6302552;22;20003;-77
2023/05/17 11:36:23;;;;;;;4.35;1.48;;;;;;;;;;6301851;22;20007;-78
2023/05/17 11:39:07;;;;;;;4.43;1.52;;;;;;;;;;6302227;22;20004;-77
2023/05/17 11:41:36;;;;;;;5.03;1.30;;;;;;;;;;6274664;22;20082;-77
2023/05/17 11:44:02;;;;;;;8.15;1.60;;;;;;;;;;6302056;22;20003;-78
2023/05/17 11:46:27;;;;;;;6.18;1.55;;;;;;;;;;6301993;22;20049;-77
2023/05/17 11:48:53;;;;;;;5.00;1.63;;;;;;;;;;6302093;22;20031;-77
2023/05/17 11:51:19;;;;;;;7.35;1.50;;;;;;;;;;6301195;22;20064;-76
2023/05/17 11:53:46;;;;;;;5.88;1.48;;;;;;;;;;6302471;22;19999;-77
2023/05/17 11:56:12;;;;;;;6.22;1.73;;;;;;;;;;6302309;22;20463;-77
2023/05/17 11:58:37;;;;;;;4.72;1.52;;;;;;;;;;6302073;22;20007;-78
2023/05/17 12:01:03;;;;;;;2.95;1.33;;;;;;;;;;6301743;22;20000;-77
2023/05/17 12:03:31;;;;;;;3.42;1.30;;;;;;;;;;6273019;22;20006;-77
2023/05/17 12:06:16;;;;;;;3.78;1.40;;;;;;;;;;6301384;22;20504;-77
2023/05/17 12:08:43;;;;;;;5.28;1.60;;;;;;;;;;6300879;22;20007;-77
2023/05/17 12:11:14;;;;;;;4.43;1.50;;;;;;;;;;6301850;22;20346;-77
2023/05/17 12:13:41;;;;;;;3.75;1.67;;;;;;;;;;6302127;22;20014;-77
2023/05/17 12:16:11;;;;;;;3.55;1.40;;;;;;;;;;6301802;22;20005;-77
2023/05/17 12:18:48;;;;;;;7.50;1.63;;;;;;;;;;6302000;22;20516;-77
2023/05/17 12:21:15;;;;;;;4.22;1.60;;;;;;;;;;6301213;22;19999;-77
2023/05/17 12:23:45;;;;;;;3.65;1.38;;;;;;;;;;6301900;22;20031;-78
2023/05/17 12:26:14;;;;;;;5.22;1.70;;;;;;;;;;6301707;22;20074;-77
2023/05/17 12:28:57;;;;;;;4.32;1.75;;;;;;;;;;6274373;22;20599;-77
2023/05/17 12:31:54;;;;;;;2.58;1.23;;;;;;;;;;6301868;22;20010;-78
2023/05/17 12:34:20;;;;;;;4.05;1.40;;;;;;;;;;6273902;22;20011;-77
2023/05/17 12:36:46;;;;;;;3.92;1.42;;;;;;;;;;6301465;22;20007;-77
2023/05/17 12:39:13;;;;;;;2.97;1.33;;;;;;;;;;6301706;22;20171;-77
2023/05/17 12:41:39;;;;;;;4.88;1.45;;;;;;;;;;6301549;22;20017;-77
2023/05/17 12:44:08;;;;;;;3.55;1.40;;;;;;;;;;6301899;22;20052;-77
2023/05/17 12:46:34;;;;;;;2.80;1.42;;;;;;;;;;6301440;22;20007;-77
2023/05/17 12:49:05;;;;;;;5.40;1.63;;;;;;;;;;6301579;22;20000;-77
2023/05/17 12:51:42;;;;;;;5.15;1.63;;;;;;;;;;6301197;22;20004;-77
2023/05/17 12:54:08;;;;;;;5.70;1.60;;;;;;;;;;6274614;22;20003;-77
2023/05/17 12:56:33;;;;;;;4.55;1.50;;;;;;;;;;6301821;22;20061;-77
2023/05/17 12:59:16;;;;;;;6.45;1.67;;;;;;;;;;6301529;22;20011;-77
2023/05/17 13:01:54;;;;;;;2.95;1.40;;;;;;;;;;6301308;22;20078;-77
2023/05/17 13:04:26;;;;;;;6.13;1.60;;;;;;;;;;6302050;22;19999;-78
2023/05/17 13:06:55;;;;;;;3.47;1.40;;;;;;;;;;6300675;22;20011;-77
2023/05/17 13:09:22;;;;;;;4.70;1.70;;;;;;;;;;6301470;22;20340;-77
2023/05/17 13:11:55;;;;;;;4.28;1.50;;;;;;;;;;6301564;22;20010;-77
2023/05/17 13:14:46;;;;;;;6.20;1.63;;;;;;;;;;6301859;22;20007;-77
2023/05/17 13:17:15;;;;;;;4.30;1.40;;;;;;;;;;6301491;22;20448;-77
2023/05/17 13:19:41;;;;;;;5.90;1.70;;;;;;;;;;6301352;22;20011;-77
2023/05/17 13:22:07;;;;;;;7.22;1.60;;;;;;;;;;6300791;22;20088;-78
2023/05/17 13:24:34;;;;;;;5.45;1.83;;;;;;;;;;6301559;22;20005;-77
2023/05/17 13:27:00;;;;;;;7.32;1.90;;;;;;;;;;6301129;22;20029;-77
2023/05/17 13:29:25;;;;;;;7.00;1.80;;;;;;;;;;6301545;22;20343;-77
2023/05/17 13:31:51;;;;;;;4.65;2.28;;;;;;;;;;6301510;22;20027;-77
2023/05/17 13:34:19;;;;;;;3.72;1.63;;;;;;;;;;6301659;22;20038;-77
2023/05/17 13:36:45;;;;;;;3.13;1.63;;;;;;;;;;6301254;22;20015;-77
2023/05/17 13:39:11;;;;;;;4.55;1.70;;;;;;;;;;6274063;22;20003;-77
2023/05/17 13:41:37;;;;;;;4.82;1.85;;;;;;;;;;6301365;22;20075;-77
2023/05/17 13:44:03;;;;;;;5.40;1.73;;;;;;;;;;6301532;22;20057;-76
2023/05/17 13:46:29;;;;;;;5.03;1.88;;;;;;;;;;6301225;22;20007;-77
2023/05/17 13:48:55;;;;;;;5.93;1.70;;;;;;;;;;6301070;22;20011;-77
2023/05/17 13:51:21;;;;;;;4.72;1.83;;;;;;;;;;6301193;22;20064;-77
2023/05/17 13:53:46;;;;;;;4.93;1.80;;;;;;;;;;6301155;22;20137;-77
2023/05/17 13:56:11;;;;;;;3.80;1.80;;;;;;;;;;6273797;22;20003;-77
2023/05/17 13:58:37;;;;;;;3.25;1.52;;;;;;;;;;6274095;22;20019;-77
2023/05/17 14:01:03;;;;;;;5.20;1.85;;;;;;;;;;6300960;22;20007;-77
2023/05/17 14:03:28;;;;;;;5.05;2.10;;;;;;;;;;6301125;22;20367;-77
2023/05/17 14:05:54;;;;;;;5.00;1.83;;;;;;;;;;6300912;22;20079;-77
2023/05/17 14:08:19;;;;;;;3.20;1.70;;;;;;;;;;6301156;22;19999;-78
2023/05/17 14:10:45;;;;;;;4.70;2.08;;;;;;;;;;6301319;22;20003;-77
2023/05/17 14:13:11;;;;;;;4.40;2.03;;;;;;;;;;6301046;22;20308;-77
2023/05/17 14:15:38;;;;;;;7.85;2.13;;;;;;;;;;6303520;22;20066;-78
2023/05/17 14:18:05;;;;;;;6.20;2.00;;;;;;;;;;6302869;22;19995;-78
2023/05/17 14:20:30;;;;;;;5.43;2.00;;;;;;;;;;6302760;22;20473;-78
2023/05/17 14:22:56;;;;;;;4.43;1.83;;;;;;;;;;6302464;22;20009;-78
2023/05/17 14:25:21;;;;;;;4.43;2.03;;;;;;;;;;6303245;22;20010;-77
2023/05/17 14:27:47;;;;;;;3.92;1.90;;;;;;;;;;6302898;22;20096;-78
2023/05/17 14:30:13;;;;;;;6.53;1.77;;;;;;;;;;6303153;22;20052;-78
2023/05/17 14:32:38;;;;;;;3.65;1.80;;;;;;;;;;6302628;22;20100;-77
2023/05/17 14:35:08;;;;;;;6.30;1.98;;;;;;;;;;6303002;22;20377;-77
2023/05/17 14:37:33;;;;;;;5.47;2.07;;;;;;;;;;6302458;22;20010;-77
2023/05/17 14:39:59;;;;;;;9.13;2.17;;;;;;;;;;6302724;22;20004;-77
2023/05/17 14:42:25;;;;;;;2.95;1.85;;;;;;;;;;6302725;22;20002;-78
2023/05/17 14:44:51;;;;;;;5.13;2.30;;;;;;;;;;6303021;22;20071;-77
2023/05/17 14:47:17;;;;;;;5.10;1.85;;;;;;;;;;6275458;22;20254;-78